createdAt,value
2023-04-01T00:01:16.172Z,17.30
2023-04-01T00:03:47.363Z,15.67
2023-04-01T00:06:18.509Z,15.83
2023-04-01T00:08:59.394Z,15.60
2023-04-01T00:11:33.043Z,14.80
2023-04-01T00:14:06.656Z,15.70
2023-04-01T00:16:37.653Z,16.23
2023-04-01T00:19:08.565Z,15.23
2023-04-01T00:21:40.193Z,15.70
2023-04-01T00:24:20.007Z,14.13
2023-04-01T00:26:49.035Z,14.00
2023-04-01T00:29:20.208Z,14.80
2023-04-01T00:31:50.659Z,14.50
2023-04-01T00:34:25.050Z,13.33
2023-04-01T00:36:56.781Z,13.60
2023-04-01T00:39:25.341Z,13.50
2023-04-01T00:41:54.011Z,17.40
2023-04-01T00:44:33.174Z,18.07
2023-04-01T00:47:03.324Z,16.30
2023-04-01T00:49:59.454Z,17.73
2023-04-01T00:52:32.703Z,15.17
2023-04-01T00:55:15.754Z,14.50
2023-04-01T00:57:56.836Z,14.40
2023-04-01T01:00:42.318Z,14.40
2023-04-01T01:03:21.516Z,14.80
2023-04-01T01:06:35.595Z,15.43
2023-04-01T01:10:08.046Z,12.30
2023-04-01T01:17:02.716Z,14.07
2023-04-01T01:20:37.417Z,17.73
2023-04-01T01:23:28.486Z,13.67
2023-04-01T01:26:19.025Z,24.77
2023-04-01T01:32:31.484Z,17.67
2023-04-01T01:35:36.183Z,13.73
2023-04-01T01:38:11.179Z,12.23
2023-04-01T01:40:56.582Z,12.27
2023-04-01T01:43:29.223Z,15.03
2023-04-01T01:46:06.744Z,10.23
2023-04-01T01:48:43.005Z,13.13
2023-04-01T01:51:47.884Z,11.90
2023-04-01T01:54:19.174Z,10.47
2023-04-01T01:59:51.463Z,11.50
2023-04-01T02:02:27.885Z,11.30
2023-04-01T02:05:11.837Z,8.67
2023-04-01T02:07:51.034Z,11.27
2023-04-01T02:10:24.510Z,11.43
2023-04-01T02:12:56.912Z,13.87
2023-04-01T02:15:37.251Z,10.90
2023-04-01T02:18:20.924Z,10.90
2023-04-01T02:21:07.014Z,10.20
2023-04-01T02:23:48.949Z,11.53
2023-04-01T02:26:25.654Z,10.20
2023-04-01T02:29:12.925Z,10.83
2023-04-01T02:31:48.263Z,12.00
2023-04-01T02:34:18.747Z,16.30
2023-04-01T02:36:49.682Z,10.77
2023-04-01T02:39:35.302Z,13.13
2023-04-01T02:42:17.318Z,10.03
2023-04-01T02:45:04.168Z,12.13
2023-04-01T02:47:47.931Z,13.30
2023-04-01T02:50:24.911Z,13.77
2023-04-01T02:53:05.344Z,12.07
2023-04-01T02:55:38.590Z,12.73
2023-04-01T03:01:16.697Z,11.30
2023-04-01T03:04:19.716Z,16.10
2023-04-01T03:07:00.498Z,14.17
2023-04-01T03:12:32.546Z,14.00
2023-04-01T03:18:23.790Z,12.43
2023-04-01T03:23:32.218Z,14.30
2023-04-01T03:26:02.623Z,11.30
2023-04-01T03:28:47.515Z,11.67
2023-04-01T03:40:31.126Z,16.13
2023-04-01T03:43:12.073Z,17.00
2023-04-01T03:45:52.903Z,15.17
2023-04-01T03:48:31.284Z,16.50
2023-04-01T03:53:30.001Z,13.17
2023-04-01T03:56:02.589Z,12.50
2023-04-01T03:58:41.736Z,14.57
2023-04-01T04:04:14.693Z,15.27
2023-04-01T04:06:55.552Z,14.87
2023-04-01T04:09:47.647Z,13.33
2023-04-01T04:12:29.902Z,13.00
2023-04-01T04:15:04.945Z,13.50
2023-04-01T04:18:02.789Z,15.90
2023-04-01T04:20:33.970Z,15.13
2023-04-01T04:23:06.932Z,17.63
2023-04-01T04:25:43.033Z,15.40
2023-04-01T04:28:20.176Z,13.93
2023-04-01T04:31:06.315Z,12.03
2023-04-01T04:34:01.496Z,10.97
2023-04-01T04:37:20.944Z,12.20
2023-04-01T04:43:16.809Z,11.87
2023-04-01T04:45:56.167Z,13.33
2023-04-01T04:48:29.336Z,18.67
2023-04-01T04:51:08.300Z,14.77
2023-04-01T04:54:08.403Z,14.23
2023-04-01T04:56:39.388Z,14.00
2023-04-01T04:59:11.131Z,12.83
2023-04-01T05:01:39.699Z,12.67
2023-04-01T05:04:22.280Z,14.90
2023-04-01T05:07:02.532Z,11.83
2023-04-01T05:09:49.012Z,14.23
2023-04-01T05:12:27.357Z,12.80
2023-04-01T05:15:18.734Z,12.60
2023-04-01T05:18:01.201Z,13.73
2023-04-01T05:20:45.358Z,15.70
2023-04-01T05:23:55.249Z,14.53
2023-04-01T05:27:12.493Z,15.70
2023-04-01T05:30:12.327Z,14.30
2023-04-01T05:32:45.545Z,11.77
2023-04-01T05:36:00.997Z,12.83
2023-04-01T05:38:42.316Z,11.30
2023-04-01T05:41:34.828Z,10.40
2023-04-01T05:44:33.868Z,10.73
2023-04-01T05:47:25.176Z,14.93
2023-04-01T05:49:56.468Z,11.70
2023-04-01T05:52:24.641Z,14.40
2023-04-01T05:54:52.586Z,10.83
2023-04-01T05:57:22.063Z,11.13
2023-04-01T05:59:50.302Z,10.80
2023-04-01T06:02:20.654Z,9.40
2023-04-01T06:04:48.919Z,11.77
2023-04-01T06:07:18.453Z,10.20
2023-04-01T06:09:47.587Z,15.13
2023-04-01T06:12:40.450Z,9.00
2023-04-01T06:15:26.742Z,14.80
2023-04-01T06:18:21.285Z,10.63
2023-04-01T06:20:58.541Z,11.83
2023-04-01T06:23:44.207Z,11.87
2023-04-01T06:26:33.148Z,8.10
2023-04-01T06:29:43.423Z,11.40
2023-04-01T06:32:46.227Z,9.93
2023-04-01T06:35:24.483Z,9.67
2023-04-01T06:38:23.775Z,11.00
2023-04-01T06:41:08.896Z,9.80
2023-04-01T06:43:46.109Z,12.17
2023-04-01T06:46:21.974Z,8.43
2023-04-01T06:49:04.481Z,8.30
2023-04-01T06:51:41.145Z,13.33
2023-04-01T06:54:14.251Z,8.47
2023-04-01T06:56:47.672Z,11.37
2023-04-01T06:59:19.789Z,10.90
2023-04-01T07:01:52.926Z,9.80
2023-04-01T07:04:25.243Z,10.50
2023-04-01T07:06:56.358Z,11.23
2023-04-01T07:09:29.892Z,10.47
2023-04-01T07:12:03.807Z,11.07
2023-04-01T07:14:37.394Z,14.47
2023-04-01T07:17:11.420Z,9.10
2023-04-01T07:19:47.338Z,14.10
2023-04-01T07:22:28.030Z,10.60
2023-04-01T07:24:58.999Z,9.97
2023-04-01T07:27:27.074Z,14.13
2023-04-01T07:29:57.945Z,9.33
2023-04-01T07:32:41.549Z,12.93
2023-04-01T07:35:23.630Z,12.17
2023-04-01T07:38:05.876Z,10.50
2023-04-01T07:40:41.533Z,8.47
2023-04-01T07:43:28.509Z,10.77
2023-04-01T07:46:03.737Z,10.27
2023-04-01T07:48:41.064Z,8.57
2023-04-01T07:51:17.243Z,8.57
2023-04-01T07:53:51.918Z,9.67
2023-04-01T07:56:27.680Z,7.60
2023-04-01T07:59:04.856Z,9.60
2023-04-01T08:01:38.728Z,6.33
2023-04-01T08:04:39.236Z,9.10
2023-04-01T08:07:13.007Z,9.63
2023-04-01T08:09:50.597Z,11.80
2023-04-01T08:12:30.980Z,7.47
2023-04-01T08:15:13.064Z,10.47
2023-04-01T08:17:54.465Z,7.70
2023-04-01T08:20:32.622Z,7.13
2023-04-01T08:23:06.357Z,9.30
2023-04-01T08:25:37.302Z,9.47
2023-04-01T08:28:13.593Z,9.50
2023-04-01T08:30:45.859Z,7.37
2023-04-01T08:33:19.448Z,8.10
2023-04-01T08:35:56.925Z,14.13
2023-04-01T08:38:31.567Z,12.07
2023-04-01T08:41:15.190Z,12.47
2023-04-01T08:44:13.437Z,8.77
2023-04-01T08:46:57.846Z,9.17
2023-04-01T08:49:49.451Z,13.27
2023-04-01T08:52:43.523Z,12.43
2023-04-01T08:55:39.312Z,7.72
2023-04-01T08:58:39.714Z,6.80
2023-04-01T09:01:21.743Z,13.32
2023-04-01T09:04:21.841Z,14.85
2023-04-01T09:07:02.935Z,5.50
2023-04-01T09:10:06.147Z,9.52
2023-04-01T09:12:52.416Z,8.25
2023-04-01T09:15:53.344Z,11.02
2023-04-01T09:18:38.692Z,8.10
2023-04-01T09:21:39.417Z,10.30
2023-04-01T09:24:36.556Z,7.57
2023-04-01T09:27:28.212Z,7.72
2023-04-01T09:30:33.795Z,5.75
2023-04-01T09:33:35.270Z,9.82
2023-04-01T09:36:09.708Z,7.55
2023-04-01T09:38:56.283Z,8.60
2023-04-01T09:41:32.116Z,9.38
2023-04-01T09:44:05.710Z,7.32
2023-04-01T09:46:59.528Z,10.52
2023-04-01T09:49:49.963Z,5.68
2023-04-01T09:52:28.197Z,5.82
2023-04-01T09:55:15.628Z,6.95
2023-04-01T09:58:20.035Z,6.07
2023-04-01T10:01:25.154Z,7.43
2023-04-01T10:04:27.230Z,6.77
2023-04-01T10:07:24.753Z,10.03
2023-04-01T10:10:43.405Z,10.37
2023-04-01T10:14:15.382Z,9.57
2023-04-01T10:17:08.731Z,5.10
2023-04-01T10:20:14.414Z,8.57
2023-04-01T10:23:24.172Z,9.60
2023-04-01T10:26:20.679Z,8.30
2023-04-01T10:29:11.893Z,6.57
2023-04-01T10:32:13.731Z,7.00
2023-04-01T10:35:16.594Z,7.03
2023-04-01T10:38:12.765Z,6.07
2023-04-01T10:40:55.574Z,7.90
2023-04-01T10:43:55.594Z,6.63
2023-04-01T10:46:46.479Z,5.17
2023-04-01T10:49:37.299Z,12.47
2023-04-01T10:52:44.457Z,7.63
2023-04-01T10:55:34.054Z,8.47
2023-04-01T10:58:31.746Z,6.43
2023-04-01T11:01:47.973Z,9.20
2023-04-01T11:04:55.105Z,6.50
2023-04-01T11:08:06.581Z,7.63
2023-04-01T11:11:04.714Z,10.00
2023-04-01T11:14:10.631Z,9.33
2023-04-01T11:17:17.610Z,6.47
2023-04-01T11:20:22.768Z,10.90
2023-04-01T11:23:20.737Z,7.23
2023-04-01T11:26:11.792Z,10.57
2023-04-01T11:29:04.690Z,9.23
2023-04-01T11:31:43.154Z,9.07
2023-04-01T11:34:30.303Z,12.43
2023-04-01T11:37:07.852Z,10.57
2023-04-01T11:39:48.973Z,8.07
2023-04-01T11:42:28.957Z,11.97
2023-04-01T11:45:06.386Z,8.67
2023-04-01T11:48:02.489Z,5.40
2023-04-01T11:50:44.512Z,7.60
2023-04-01T11:53:29.217Z,13.60
2023-04-01T11:56:13.183Z,5.60
2023-04-01T11:59:07.420Z,2.53
2023-04-01T12:01:48.846Z,1.07
2023-04-01T12:04:38.909Z,0.80
2023-04-01T12:07:20.323Z,1.23
2023-04-01T12:09:58.463Z,1.00
2023-04-01T12:12:34.897Z,1.33
2023-04-01T12:15:18.445Z,1.50
2023-04-01T12:17:52.117Z,1.10
2023-04-01T12:20:45.639Z,2.07
2023-04-01T12:23:32.279Z,1.07
2023-04-01T12:26:15.366Z,1.07
2023-04-01T12:28:56.523Z,0.70
2023-04-01T12:31:37.935Z,1.20
2023-04-01T12:34:35.753Z,2.70
2023-04-01T12:37:15.677Z,0.70
2023-04-01T12:40:00.296Z,1.10
2023-04-01T12:42:50.181Z,1.10
2023-04-01T12:45:35.592Z,1.23
2023-04-01T12:48:36.272Z,2.63
2023-04-01T12:51:28.869Z,1.97
2023-04-01T12:54:27.707Z,1.87
2023-04-01T12:57:08.943Z,1.43
2023-04-01T12:59:55.482Z,2.40
2023-04-01T13:02:39.741Z,0.60
2023-04-01T13:05:37.887Z,3.87
2023-04-01T13:08:26.209Z,1.03
2023-04-01T13:11:09.724Z,2.60
2023-04-01T13:13:55.885Z,1.23
2023-04-01T13:16:28.502Z,2.10
2023-04-01T13:19:04.012Z,1.60
2023-04-01T13:21:47.095Z,1.20
2023-04-01T13:24:30.757Z,0.90
2023-04-01T13:27:08.319Z,1.30
2023-04-01T13:29:41.170Z,1.33
2023-04-01T13:32:40.560Z,0.90
2023-04-01T13:35:23.294Z,1.20
2023-04-01T13:38:03.525Z,1.53
2023-04-01T13:40:42.869Z,2.60
2023-04-01T13:43:21.125Z,1.30
2023-04-01T13:46:38.694Z,1.20
2023-04-01T13:49:24.009Z,1.10
2023-04-01T13:52:27.555Z,0.93
2023-04-01T13:55:32.738Z,3.00
2023-04-01T13:58:33.877Z,3.07
2023-04-01T14:01:11.696Z,1.87
2023-04-01T14:04:16.847Z,0.83
2023-04-01T14:06:58.900Z,0.93
2023-04-01T14:09:57.072Z,1.03
2023-04-01T14:12:32.622Z,1.23
2023-04-01T14:15:22.715Z,1.13
2023-04-01T14:18:03.200Z,0.73
2023-04-01T14:20:41.537Z,0.80
2023-04-01T14:23:23.426Z,0.80
2023-04-01T14:26:09.080Z,0.73
2023-04-01T14:28:48.914Z,0.93
2023-04-01T14:31:37.383Z,1.77
2023-04-01T14:34:17.759Z,1.10
2023-04-01T14:37:01.305Z,1.50
2023-04-01T14:39:46.534Z,1.73
2023-04-01T14:42:27.868Z,1.00
2023-04-01T14:45:09.890Z,1.50
2023-04-01T14:47:46.901Z,3.27
2023-04-01T14:50:17.930Z,2.00
2023-04-01T14:52:51.808Z,3.40
2023-04-01T14:55:30.968Z,2.60
2023-04-01T14:58:11.730Z,0.70
2023-04-01T15:01:00.309Z,1.27
2023-04-01T15:03:34.844Z,1.03
2023-04-01T15:06:38.666Z,1.00
2023-04-01T15:09:16.801Z,1.23
2023-04-01T15:11:56.899Z,1.67
2023-04-01T15:15:05.767Z,1.23
2023-04-01T15:17:50.174Z,1.13
2023-04-01T15:20:36.847Z,2.20
2023-04-01T15:23:26.845Z,0.77
2023-04-01T15:26:22.600Z,2.53
2023-04-01T15:29:02.872Z,6.53
2023-04-01T15:31:40.243Z,8.07
2023-04-01T15:34:24.599Z,6.23
2023-04-01T15:36:59.309Z,8.17
2023-04-01T15:39:38.866Z,9.13
2023-04-01T15:42:29.847Z,9.97
2023-04-01T15:45:14.685Z,8.80
2023-04-01T15:47:48.482Z,10.37
2023-04-01T15:50:35.184Z,7.40
2023-04-01T15:53:23.094Z,6.17
2023-04-01T15:55:59.392Z,4.03
2023-04-01T15:58:46.999Z,3.13
2023-04-01T16:01:27.938Z,3.67
2023-04-01T16:04:07.358Z,4.40
2023-04-01T16:06:51.397Z,5.23
2023-04-01T16:09:42.583Z,5.27
2023-04-01T16:12:18.591Z,5.37
2023-04-01T16:14:59.083Z,5.93
2023-04-01T16:17:38.702Z,5.50
2023-04-01T16:20:21.144Z,1.13
2023-04-01T16:22:56.752Z,0.77
2023-04-01T16:25:36.015Z,1.33
2023-04-01T16:28:24.459Z,0.83
2023-04-01T16:31:00.456Z,0.73
2023-04-01T16:33:38.163Z,1.20
2023-04-01T16:36:16.563Z,0.63
2023-04-01T16:38:53.049Z,0.90
2023-04-01T16:41:26.530Z,1.77
2023-04-01T16:43:59.769Z,1.27
2023-04-01T16:46:36.617Z,1.13
2023-04-01T16:49:30.711Z,1.97
2023-04-01T16:52:15.514Z,0.70
2023-04-01T16:54:49.908Z,0.93
2023-04-01T16:57:22.710Z,1.03
2023-04-01T16:59:59.955Z,1.20
2023-04-01T17:02:30.743Z,0.50
2023-04-01T17:05:05.128Z,0.53
2023-04-01T17:07:43.062Z,0.83
2023-04-01T17:10:27.052Z,0.77
2023-04-01T17:13:18.716Z,1.40
2023-04-01T17:15:53.856Z,0.97
2023-04-01T17:18:30.790Z,1.13
2023-04-01T17:21:06.863Z,0.80
2023-04-01T17:23:40.967Z,0.63
2023-04-01T17:26:22.890Z,1.43
2023-04-01T17:28:56.178Z,0.50
2023-04-01T17:31:40.069Z,2.47
2023-04-01T17:34:29.430Z,2.43
2023-04-01T17:37:10.421Z,2.40
2023-04-01T17:39:55.637Z,2.40
2023-04-01T17:42:30.078Z,2.53
2023-04-01T17:45:06.394Z,2.57
2023-04-01T17:47:44.314Z,2.47
2023-04-01T17:50:26.029Z,2.97
2023-04-01T17:53:16.639Z,5.17
2023-04-01T17:55:59.031Z,3.50
2023-04-01T17:58:36.002Z,2.93
2023-04-01T18:01:19.529Z,3.33
2023-04-01T18:04:01.670Z,3.00
2023-04-01T18:06:38.369Z,2.90
2023-04-01T18:09:17.957Z,3.03
2023-04-01T18:12:00.660Z,2.77
2023-04-01T18:15:08.078Z,2.93
2023-04-01T18:17:46.526Z,3.93
2023-04-01T18:20:27.856Z,3.53
2023-04-01T18:22:59.730Z,3.90
2023-04-01T18:25:34.948Z,2.93
2023-04-01T18:28:21.390Z,1.80
2023-04-01T18:30:57.103Z,0.93
2023-04-01T18:33:34.205Z,0.70
2023-04-01T18:36:15.569Z,0.93
2023-04-01T18:38:53.570Z,0.97
2023-04-01T18:41:46.352Z,0.80
2023-04-01T18:44:31.576Z,0.83
2023-04-01T18:47:10.413Z,1.17
2023-04-01T18:49:46.951Z,0.70
2023-04-01T18:52:22.455Z,0.80
2023-04-01T18:55:26.492Z,0.60
2023-04-01T18:57:57.615Z,1.17
2023-04-01T19:00:29.924Z,0.70
2023-04-01T19:03:04.141Z,1.53
2023-04-01T19:05:35.216Z,0.73
2023-04-01T19:08:29.230Z,0.97
2023-04-01T19:11:11.944Z,0.93
2023-04-01T19:13:51.777Z,1.20
2023-04-01T19:16:47.561Z,0.73
2023-04-01T19:19:49.826Z,1.27
2023-04-01T19:22:39.441Z,0.70
2023-04-01T19:25:33.629Z,1.63
2023-04-01T19:28:10.270Z,5.20
2023-04-01T19:30:48.084Z,5.33
2023-04-01T19:33:40.660Z,4.50
2023-04-01T19:36:19.515Z,4.87
2023-04-01T19:38:58.251Z,5.80
2023-04-01T19:41:42.058Z,4.43
2023-04-01T19:44:29.011Z,4.17
2023-04-01T19:47:04.596Z,3.63
2023-04-01T19:49:46.964Z,4.27
2023-04-01T19:52:20.926Z,3.87
2023-04-01T19:54:53.186Z,3.83
2023-04-01T19:57:32.484Z,4.07
2023-04-01T20:00:08.398Z,3.20
2023-04-01T20:02:52.859Z,3.90
2023-04-01T20:05:42.400Z,4.43
2023-04-01T20:08:19.231Z,3.60
2023-04-01T20:10:57.550Z,3.53
2023-04-01T20:13:35.657Z,3.80
2023-04-01T20:16:06.720Z,3.60
2023-04-01T20:18:43.708Z,3.63
2023-04-01T20:21:33.939Z,5.33
2023-04-01T20:24:06.555Z,3.60
2023-04-01T20:26:38.969Z,3.00
2023-04-01T20:29:26.517Z,3.10
2023-04-01T20:32:07.224Z,2.77
2023-04-01T20:35:08.694Z,2.70
2023-04-01T20:37:44.255Z,4.70
2023-04-01T20:40:27.507Z,3.47
2023-04-01T20:43:30.675Z,2.80
2023-04-01T20:46:08.970Z,5.40
2023-04-01T20:48:54.238Z,21.50
2023-04-01T20:51:27.364Z,16.50
2023-04-01T20:54:11.760Z,7.70
2023-04-01T20:56:50.004Z,3.23
2023-04-01T20:59:44.114Z,2.90
2023-04-01T21:02:29.136Z,3.07
2023-04-01T21:05:30.350Z,2.90
2023-04-01T21:08:05.072Z,2.60
2023-04-01T21:10:42.643Z,3.30
2023-04-01T21:13:24.375Z,2.90
2023-04-01T21:16:02.852Z,2.90
2023-04-01T21:19:02.518Z,2.60
2023-04-01T21:22:07.064Z,3.03
2023-04-01T21:25:10.184Z,3.73
2023-04-01T21:27:50.846Z,2.73
2023-04-01T21:30:35.879Z,2.50
2023-04-01T21:33:25.116Z,2.77
2023-04-01T21:36:05.530Z,2.63
2023-04-01T21:38:46.098Z,2.80
2023-04-01T21:41:27.387Z,2.40
2023-04-01T21:44:25.715Z,1.67
2023-04-01T21:47:21.576Z,2.50
2023-04-01T21:50:13.481Z,2.10
2023-04-01T21:53:11.877Z,2.50
2023-04-01T21:56:18.975Z,2.50
2023-04-01T21:59:09.044Z,2.00
2023-04-01T22:02:05.680Z,2.20
2023-04-01T22:04:44.810Z,2.40
2023-04-01T22:07:19.337Z,2.50
2023-04-01T22:09:57.726Z,2.57
2023-04-01T22:12:32.571Z,4.27
2023-04-01T22:15:10.661Z,2.50
2023-04-01T22:17:47.553Z,2.67
2023-04-01T22:20:26.858Z,3.00
2023-04-01T22:23:09.591Z,2.00
2023-04-01T22:25:46.518Z,2.43
2023-04-01T22:28:21.691Z,2.70
2023-04-01T22:30:53.058Z,2.20
2023-04-01T22:33:32.200Z,2.80
2023-04-01T22:36:12.722Z,2.60
2023-04-01T22:38:57.674Z,3.57
2023-04-01T22:41:39.548Z,3.60
2023-04-01T22:44:21.903Z,3.00
2023-04-01T22:47:00.446Z,3.40
2023-04-01T22:49:34.785Z,3.13
2023-04-01T22:52:12.560Z,3.03
2023-04-01T22:54:45.193Z,2.90
2023-04-01T22:57:17.477Z,3.13
2023-04-01T22:59:52.297Z,2.60
2023-04-01T23:02:26.081Z,4.47
2023-04-01T23:04:58.654Z,3.07
2023-04-01T23:07:47.910Z,2.50
2023-04-01T23:10:23.428Z,2.87
2023-04-01T23:12:54.274Z,3.77
2023-04-01T23:15:23.105Z,2.23
2023-04-01T23:18:13.833Z,2.67
2023-04-01T23:21:05.644Z,1.40
2023-04-01T23:23:47.733Z,1.30
2023-04-01T23:26:21.860Z,1.70
2023-04-01T23:28:53.188Z,3.13
2023-04-01T23:31:34.218Z,1.83
2023-04-01T23:34:04.159Z,2.77
2023-04-01T23:36:40.758Z,2.30
2023-04-01T23:39:23.473Z,1.60
2023-04-01T23:41:53.844Z,3.37
2023-04-01T23:44:23.112Z,2.23
2023-04-01T23:46:52.643Z,1.83
2023-04-01T23:49:25.315Z,2.43
2023-04-01T23:51:59.853Z,2.13
2023-04-01T23:54:34.450Z,3.00
2023-04-01T23:57:08.803Z,3.47
2023-04-01T23:59:38.774Z,2.20
